This is the latest recevied weather packets stored in our database for station/object KJ6LNH-1. If no packets are shown the sender has not sent any weather packets the latest 10 day(s).
| Time | Temp. | Humidity | Pressure | Rain* | Wind** | Luminosity | Snow |
|---|---|---|---|---|---|---|---|
| 1777831292 | 15.56° C | 66% | 1011.4 hPa | 0 mm | - | - | - |
| 1777830749 | 15.56° C | 65% | 1011.4 hPa | 0 mm | - | - | - |
| 1777830384 | 16.11° C | 63% | 1011.4 hPa | 0 mm | - | - | - |
| 1777830049 | 16.11° C | 63% | 1011.3 hPa | 0 mm | - | - | - |
| 1777829747 | 16.67° C | 61% | 1011.2 hPa | 0 mm | - | - | - |
| 1777829151 | 16.67° C | 62% | 1011.1 hPa | 0 mm | - | - | - |
| 1777828865 | 16.67° C | 62% | 1011.2 hPa | 0 mm | - | - | - |
| 1777828550 | 17.22° C | 61% | 1011.2 hPa | 0 mm | - | - | - |
| 1777828328 | 17.22° C | 60% | 1011.1 hPa | 0 mm | - | - | - |
| 1777827930 | 16.67° C | 63% | 1011 hPa | 0 mm | - | - | - |
| 1777827648 | 16.67° C | 63% | 1011 hPa | 0 mm | - | - | - |
| 1777827425 | 16.11° C | 63% | 1011 hPa | 0 mm | - | - | - |
| 1777827079 | 16.11° C | 63% | 1010.9 hPa | 0 mm | - | - | - |
| 1777826799 | 16.11° C | 64% | 1011 hPa | 0 mm | - | - | - |
| 1777826501 | 16.11° C | 65% | 1010.9 hPa | 0 mm | - | - | - |
| 1777826193 | 15° C | 66% | 1010.9 hPa | 0 mm | - | - | - |
| 1777825842 | 15° C | 66% | 1010.9 hPa | 0 mm | - | - | - |
| 1777825534 | 15° C | 66% | 1010.8 hPa | 0 mm | - | - | - |
| 1777825251 | 15° C | 67% | 1010.8 hPa | 0 mm | - | - | - |
| 1777825013 | 15° C | 68% | 1010.8 hPa | 0 mm | - | - | - |
| 1777824725 | 14.44° C | 71% | 1010.7 hPa | 0 mm | - | - | - |
| 1777824344 | 13.89° C | 72% | 1010.8 hPa | 0 mm | - | - | - |
| 1777824031 | 13.89° C | 73% | 1010.7 hPa | 0 mm | - | - | - |
| 1777823756 | 13.33° C | 75% | 1010.7 hPa | 0 mm | - | - | - |
| 1777823465 | 13.33° C | 76% | 1010.8 hPa | 0 mm | - | - | - |
* Rain latest hour (hover to see other rain measurements)
** Current wind speed in m/s (hover to see current wind gust speed)